METAR Data
IDs: Format: Raw Decoded Include TAF

Data at: 0346 UTC 06 Dec 2019

METAR for:KIOW (Iowa City Muni, IA, US)
Text:KIOW 060252Z AUTO 00000KT 10SM CLR 02/M01 A2995 RMK AO2 SLP149 T00221006 53009
Temperature: 2.2°C ( 36°F)
Dewpoint: -0.6°C ( 31°F) [RH = 82%]
Pressure (altimeter):29.95 inches Hg (1014.3 mb) [Sea level pressure: 1014.9 mb]
Winds:calm
Visibility:10 or more sm (16+ km)
Ceiling:at least 12,000 feet AGL
Clouds:sky clear below 12,000 feet AGL
QC Flag:automated observation with no human augmentation